Time;durP1;ratioP1;P1;durP2;ratioP2;P2;SDS_P1;SDS_P2;PMS_P1;PMS_P2;Temp;Humidity;BMP_temperature;BMP_pressure;BME280_temperature;BME280_humidity;BME280_pressure;Samples;Min_cycle;Max_cycle;Signal;HPM_P1;HPM_P2
2021/12/31 00:01:32;;;;;;;;;;;13.20;99.90;;;;;;5066024;28;19924;-61
2021/12/31 00:04:00;;;;;;;;;;;13.20;99.90;;;;;;5064463;28;19924;-62
2021/12/31 00:06:27;;;;;;;;;;;13.20;99.90;;;;;;5066360;28;19920;-61
2021/12/31 00:08:55;;;;;;;;;;;13.20;99.90;;;;;;5068284;28;19931;-61
2021/12/31 00:11:22;;;;;;;;;;;13.20;99.90;;;;;;5068480;28;19944;-61
2021/12/31 00:13:50;;;;;;;;;;;13.20;99.90;;;;;;5046689;28;19931;-63
2021/12/31 00:16:17;;;;;;;;;;;13.30;99.90;;;;;;5068232;28;20385;-61
2021/12/31 00:18:45;;;;;;;;;;;13.20;99.90;;;;;;5067950;28;19928;-61
2021/12/31 00:21:12;;;;;;;;;;;13.30;99.90;;;;;;5068134;28;19920;-61
2021/12/31 00:23:42;;;;;;;;;;;13.30;99.90;;;;;;5068069;28;19920;-61
2021/12/31 00:26:10;;;;;;;;;;;13.30;99.90;;;;;;5068155;28;19920;-61
2021/12/31 00:28:37;;;;;;;;;;;13.30;99.90;;;;;;5058201;28;20369;-62
2021/12/31 00:31:05;;;;;;;;;;;13.30;99.90;;;;;;5048513;28;19920;-59
2021/12/31 00:33:32;;;;;;;;;;;13.30;99.90;;;;;;5055213;28;19925;-59
2021/12/31 00:36:00;;;;;;;;;;;13.30;99.90;;;;;;5068014;28;20292;-59
2021/12/31 00:38:27;;;;;;;;;;;13.30;99.90;;;;;;5069477;28;19932;-60
2021/12/31 00:40:54;;;;;;;;;;;13.30;99.90;;;;;;5053936;28;20299;-59
2021/12/31 00:43:22;;;;;;;;;;;13.30;99.90;;;;;;5052406;28;20403;-59
2021/12/31 00:45:50;;;;;;;;;;;13.30;99.90;;;;;;5071481;28;19927;-58
2021/12/31 00:48:17;;;;;;;;;;;13.30;99.90;;;;;;5071278;28;19921;-59
2021/12/31 00:50:44;;;;;;;;;;;13.30;99.90;;;;;;5071279;28;19931;-59
2021/12/31 00:53:12;;;;;;;;;;;13.30;99.90;;;;;;5071453;28;19920;-59
2021/12/31 00:55:41;;;;;;;;;;;13.40;99.90;;;;;;5071180;28;19924;-60
2021/12/31 00:58:08;;;;;;;;;;;13.40;99.90;;;;;;5066225;28;19931;-60
2021/12/31 01:00:36;;;;;;;;;;;13.40;99.90;;;;;;5050793;28;19931;-62
2021/12/31 01:03:04;;;;;;;;;;;13.40;99.90;;;;;;5051744;28;19928;-60
2021/12/31 01:05:31;;;;;;;;;;;13.40;99.90;;;;;;5049924;28;19967;-60
2021/12/31 01:07:59;;;;;;;;;;;13.40;99.90;;;;;;5070109;28;19927;-60
2021/12/31 01:10:28;;;;;;;;;;;13.40;99.90;;;;;;5052930;28;20368;-60
2021/12/31 01:12:55;;;;;;;;;;;13.50;99.90;;;;;;5052075;28;19927;-60
2021/12/31 01:15:36;;;;;;;;;;;13.50;99.90;;;;;;5049855;28;19932;-61
2021/12/31 01:20:38;;;;;;;;;;;13.50;99.90;;;;;;5070779;28;19925;-62
2021/12/31 01:23:08;;;;;;;;;;;13.50;99.90;;;;;;5070818;28;19927;-62
2021/12/31 01:25:36;;;;;;;;;;;13.50;99.90;;;;;;5070994;28;20360;-61
2021/12/31 01:28:04;;;;;;;;;;;13.50;99.90;;;;;;5068507;28;20364;-60
2021/12/31 01:30:32;;;;;;;;;;;13.50;99.90;;;;;;5050918;28;20292;-61
2021/12/31 01:32:59;;;;;;;;;;;13.50;99.90;;;;;;5052760;28;20423;-60
2021/12/31 01:35:27;;;;;;;;;;;13.50;99.90;;;;;;5052434;28;19927;-61
2021/12/31 01:37:54;;;;;;;;;;;13.50;99.90;;;;;;5070211;28;20284;-64
2021/12/31 01:40:22;;;;;;;;;;;13.50;99.90;;;;;;5070196;28;19927;-66
2021/12/31 01:42:49;;;;;;;;;;;13.40;99.90;;;;;;5070319;28;19920;-65
2021/12/31 01:45:20;;;;;;;;;;;13.50;99.90;;;;;;5051942;28;19932;-65
2021/12/31 01:50:25;;;;;;;;;;;13.40;99.90;;;;;;5069934;28;19928;-65
2021/12/31 01:52:53;;;;;;;;;;;13.50;99.90;;;;;;5070035;28;19927;-65
2021/12/31 01:55:22;;;;;;;;;;;13.50;99.90;;;;;;5052100;28;19921;-64
2021/12/31 01:57:50;;;;;;;;;;;13.50;99.90;;;;;;5070094;28;19920;-67
2021/12/31 02:00:17;;;;;;;;;;;13.50;99.90;;;;;;5051661;28;19925;-65
2021/12/31 02:02:46;;;;;;;;;;;13.50;99.90;;;;;;5049510;28;19921;-65
2021/12/31 02:05:14;;;;;;;;;;;13.50;99.90;;;;;;5051794;28;19928;-64
2021/12/31 02:07:41;;;;;;;;;;;13.50;99.90;;;;;;5069545;28;20383;-62
2021/12/31 02:10:09;;;;;;;;;;;13.50;99.90;;;;;;5069678;28;20360;-61
2021/12/31 02:12:41;;;;;;;;;;;13.50;99.90;;;;;;5069644;28;19921;-60
2021/12/31 02:15:09;;;;;;;;;;;13.50;99.90;;;;;;5064485;28;19920;-61
2021/12/31 02:17:36;;;;;;;;;;;13.60;99.90;;;;;;5051683;28;19927;-61
2021/12/31 02:20:06;;;;;;;;;;;13.50;99.90;;;;;;5051836;28;19924;-61
2021/12/31 02:22:34;;;;;;;;;;;13.60;99.90;;;;;;5051598;28;19925;-61
2021/12/31 02:25:02;;;;;;;;;;;13.60;99.90;;;;;;5068910;28;19920;-60
2021/12/31 02:27:29;;;;;;;;;;;13.60;99.90;;;;;;5069428;28;19920;-60
2021/12/31 02:29:57;;;;;;;;;;;13.60;99.90;;;;;;5056873;28;19920;-60
2021/12/31 02:32:24;;;;;;;;;;;13.60;99.90;;;;;;5055386;28;20288;-60
2021/12/31 02:34:52;;;;;;;;;;;13.60;99.90;;;;;;5052778;28;19921;-61
2021/12/31 02:37:19;;;;;;;;;;;13.60;99.90;;;;;;5067971;28;19920;-61
2021/12/31 02:39:47;;;;;;;;;;;13.60;99.90;;;;;;5071993;28;19921;-60
2021/12/31 02:42:14;;;;;;;;;;;13.60;99.90;;;;;;5072351;28;19920;-60
2021/12/31 02:44:43;;;;;;;;;;;13.60;99.90;;;;;;5044692;28;19921;-61
2021/12/31 02:47:10;;;;;;;;;;;13.60;99.90;;;;;;5050594;28;19943;-61
2021/12/31 02:49:40;;;;;;;;;;;13.60;99.90;;;;;;5054866;28;19920;-61
2021/12/31 02:52:10;;;;;;;;;;;13.60;99.90;;;;;;5072667;28;19927;-60
2021/12/31 02:54:39;;;;;;;;;;;13.60;99.90;;;;;;5072442;28;19920;-60
2021/12/31 02:57:07;;;;;;;;;;;13.60;99.90;;;;;;5072308;28;19920;-60
2021/12/31 02:59:35;;;;;;;;;;;13.60;99.90;;;;;;5071575;28;19920;-60
2021/12/31 03:02:06;;;;;;;;;;;13.60;99.90;;;;;;5071770;28;19927;-61
2021/12/31 03:04:35;;;;;;;;;;;13.60;99.90;;;;;;5072134;28;19932;-61
2021/12/31 03:07:03;;;;;;;;;;;13.60;99.90;;;;;;5054092;28;20368;-60
2021/12/31 03:09:31;;;;;;;;;;;13.60;99.90;;;;;;5054403;28;20300;-60
2021/12/31 03:11:59;;;;;;;;;;;13.60;99.90;;;;;;5072226;28;19927;-60
2021/12/31 03:14:28;;;;;;;;;;;13.50;99.90;;;;;;5071831;28;19920;-60
2021/12/31 03:16:57;;;;;;;;;;;13.50;99.90;;;;;;5072054;28;19995;-60
2021/12/31 03:19:24;;;;;;;;;;;13.40;99.90;;;;;;5072098;28;19931;-60
2021/12/31 03:21:51;;;;;;;;;;;13.40;99.90;;;;;;5072067;28;19920;-61
2021/12/31 03:24:19;;;;;;;;;;;13.40;99.90;;;;;;5071866;28;19920;-61
2021/12/31 03:26:47;;;;;;;;;;;13.40;99.90;;;;;;5087653;28;19924;-60
2021/12/31 03:29:15;;;;;;;;;;;13.40;99.90;;;;;;5071869;28;19921;-60
2021/12/31 03:31:42;;;;;;;;;;;13.40;99.90;;;;;;5072148;28;19920;-59
2021/12/31 03:34:10;;;;;;;;;;;13.40;99.90;;;;;;5072160;28;19928;-59
2021/12/31 03:36:38;;;;;;;;;;;13.40;99.90;;;;;;5071942;28;19920;-60
2021/12/31 03:39:05;;;;;;;;;;;13.40;99.90;;;;;;5071952;28;19932;-59
2021/12/31 03:41:33;;;;;;;;;;;13.40;99.90;;;;;;5054536;28;19928;-60
2021/12/31 03:44:00;;;;;;;;;;;13.40;99.90;;;;;;5071794;28;20301;-60
2021/12/31 03:46:28;;;;;;;;;;;13.40;99.90;;;;;;5071843;28;20402;-60
2021/12/31 03:48:55;;;;;;;;;;;13.40;99.90;;;;;;5072165;28;19920;-63
2021/12/31 03:51:23;;;;;;;;;;;13.40;99.90;;;;;;5054058;28;19921;-62
2021/12/31 03:53:50;;;;;;;;;;;13.30;99.90;;;;;;5072407;28;19928;-62
2021/12/31 03:56:21;;;;;;;;;;;13.30;99.90;;;;;;5054054;28;20260;-64
2021/12/31 03:58:48;;;;;;;;;;;13.20;99.90;;;;;;5053969;28;19928;-64
2021/12/31 04:01:16;;;;;;;;;;;13.20;99.90;;;;;;5071544;28;19920;-61
2021/12/31 04:03:44;;;;;;;;;;;13.20;99.90;;;;;;5071852;28;19921;-62
2021/12/31 04:06:11;;;;;;;;;;;13.20;99.90;;;;;;5071791;28;19920;-61
2021/12/31 04:08:38;;;;;;;;;;;13.10;99.90;;;;;;5072350;28;19921;-60
2021/12/31 04:11:06;;;;;;;;;;;13.10;99.90;;;;;;5071844;28;20018;-60
2021/12/31 04:13:33;;;;;;;;;;;13.10;99.90;;;;;;5075354;28;19920;-64
2021/12/31 04:16:00;;;;;;;;;;;13.10;99.90;;;;;;5075372;28;19927;-63
2021/12/31 04:18:28;;;;;;;;;;;13.10;99.90;;;;;;5075629;28;19927;-63
2021/12/31 04:20:57;;;;;;;;;;;13.20;99.90;;;;;;5075722;28;19931;-63
2021/12/31 04:25:55;;;;;;;;;;;13.20;99.90;;;;;;5075202;28;20261;-62
2021/12/31 04:28:23;;;;;;;;;;;13.20;99.90;;;;;;5075182;28;19928;-63
2021/12/31 04:30:51;;;;;;;;;;;13.20;99.90;;;;;;5075345;28;19921;-63
2021/12/31 04:33:18;;;;;;;;;;;13.30;99.90;;;;;;5075341;28;19921;-63
2021/12/31 04:35:46;;;;;;;;;;;13.30;99.90;;;;;;5075002;28;19931;-65
2021/12/31 04:38:13;;;;;;;;;;;13.30;99.90;;;;;;5057255;28;19943;-64
2021/12/31 04:40:41;;;;;;;;;;;13.30;99.90;;;;;;5075208;28;19921;-63
2021/12/31 04:43:08;;;;;;;;;;;13.30;99.90;;;;;;5075065;28;19921;-63
2021/12/31 04:45:36;;;;;;;;;;;13.40;99.90;;;;;;5056949;28;19920;-59
2021/12/31 04:48:04;;;;;;;;;;;13.40;99.90;;;;;;5075076;28;19920;-59
2021/12/31 04:50:31;;;;;;;;;;;13.40;99.90;;;;;;5074765;28;19936;-59
2021/12/31 04:52:59;;;;;;;;;;;13.40;99.90;;;;;;5074657;28;19921;-59
2021/12/31 04:55:26;;;;;;;;;;;13.40;99.90;;;;;;5056713;28;20303;-59
2021/12/31 04:57:54;;;;;;;;;;;13.40;99.90;;;;;;5073747;28;20391;-60
2021/12/31 05:00:21;;;;;;;;;;;13.50;99.90;;;;;;5074755;28;19920;-59
2021/12/31 05:02:49;;;;;;;;;;;13.50;99.90;;;;;;5074713;28;19920;-59
2021/12/31 05:05:16;;;;;;;;;;;13.40;99.90;;;;;;5074594;28;19920;-59
2021/12/31 05:07:44;;;;;;;;;;;13.40;99.90;;;;;;5074758;28;19920;-59
2021/12/31 05:10:11;;;;;;;;;;;13.40;99.90;;;;;;5074573;28;19920;-60
2021/12/31 05:12:39;;;;;;;;;;;13.40;99.90;;;;;;5040061;28;19920;-59
2021/12/31 05:15:08;;;;;;;;;;;13.40;99.90;;;;;;5074708;28;19920;-61
2021/12/31 05:17:36;;;;;;;;;;;13.40;99.90;;;;;;5089999;28;19924;-60
2021/12/31 05:20:04;;;;;;;;;;;13.30;99.90;;;;;;5074315;28;19920;-59
2021/12/31 05:22:33;;;;;;;;;;;13.30;99.90;;;;;;5089589;28;19947;-60
2021/12/31 05:25:00;;;;;;;;;;;13.30;99.90;;;;;;5073348;28;19931;-59
2021/12/31 05:27:28;;;;;;;;;;;13.30;99.90;;;;;;5074207;28;19921;-60
2021/12/31 05:29:55;;;;;;;;;;;13.30;99.90;;;;;;5074233;28;20375;-59
2021/12/31 05:32:23;;;;;;;;;;;13.30;99.90;;;;;;5074145;28;19920;-59
2021/12/31 05:34:50;;;;;;;;;;;13.30;99.90;;;;;;5055930;28;20356;-59
2021/12/31 05:37:17;;;;;;;;;;;13.30;99.90;;;;;;5056220;28;19921;-59
2021/12/31 05:39:45;;;;;;;;;;;13.30;99.90;;;;;;5074156;28;19931;-60
2021/12/31 05:42:12;;;;;;;;;;;13.40;99.90;;;;;;5073958;28;19928;-59
2021/12/31 05:44:40;;;;;;;;;;;13.40;99.90;;;;;;5073726;28;19920;-61
2021/12/31 05:47:08;;;;;;;;;;;13.40;99.90;;;;;;5069666;28;19921;-60
2021/12/31 05:49:35;;;;;;;;;;;13.40;99.90;;;;;;5050566;28;19948;-59
2021/12/31 05:52:03;;;;;;;;;;;13.40;99.90;;;;;;5050443;28;19928;-59
2021/12/31 05:54:31;;;;;;;;;;;13.30;99.90;;;;;;5050242;28;19927;-60
2021/12/31 05:56:58;;;;;;;;;;;13.30;99.90;;;;;;5050195;28;19927;-60
2021/12/31 05:59:25;;;;;;;;;;;13.30;99.90;;;;;;5052231;28;19927;-60
2021/12/31 06:01:53;;;;;;;;;;;13.30;99.90;;;;;;5066149;28;19924;-59
2021/12/31 06:04:22;;;;;;;;;;;13.30;99.90;;;;;;5028086;28;19932;-60
2021/12/31 06:06:50;;;;;;;;;;;13.30;99.90;;;;;;5029327;28;19920;-60
2021/12/31 06:09:17;;;;;;;;;;;13.30;99.90;;;;;;5068088;28;20264;-60
2021/12/31 06:11:45;;;;;;;;;;;13.30;99.90;;;;;;5067605;28;19931;-59
2021/12/31 06:14:13;;;;;;;;;;;13.30;99.90;;;;;;5066601;28;20450;-60
2021/12/31 06:16:42;;;;;;;;;;;13.30;99.90;;;;;;5066626;28;19920;-60
2021/12/31 06:19:11;;;;;;;;;;;13.30;99.90;;;;;;5032844;28;19920;-65
2021/12/31 06:21:39;;;;;;;;;;;13.30;99.90;;;;;;5047467;28;19928;-64
2021/12/31 06:24:07;;;;;;;;;;;13.30;99.90;;;;;;5050506;28;19927;-64
2021/12/31 06:26:35;;;;;;;;;;;13.30;99.90;;;;;;5069408;28;20307;-65
2021/12/31 06:29:03;;;;;;;;;;;13.40;99.90;;;;;;5069201;28;19927;-64
2021/12/31 06:31:31;;;;;;;;;;;13.30;99.90;;;;;;5069547;28;19920;-64
2021/12/31 06:33:58;;;;;;;;;;;13.30;99.90;;;;;;5049569;28;19920;-65
2021/12/31 06:36:26;;;;;;;;;;;13.30;99.90;;;;;;5033583;28;19920;-65
2021/12/31 06:38:53;;;;;;;;;;;13.30;99.90;;;;;;5069194;28;19921;-60
2021/12/31 06:41:21;;;;;;;;;;;13.20;99.90;;;;;;5069619;28;19927;-61
2021/12/31 06:43:48;;;;;;;;;;;13.20;99.90;;;;;;5069336;28;20355;-61
2021/12/31 06:46:16;;;;;;;;;;;13.20;99.90;;;;;;5069329;28;19924;-62
2021/12/31 06:48:44;;;;;;;;;;;13.20;99.90;;;;;;5058396;28;19921;-61
2021/12/31 06:51:12;;;;;;;;;;;13.20;99.90;;;;;;5031711;28;19921;-61
2021/12/31 06:53:39;;;;;;;;;;;13.20;99.90;;;;;;5079632;28;19920;-60
2021/12/31 06:56:07;;;;;;;;;;;13.20;99.90;;;;;;5069107;28;20275;-60
2021/12/31 06:58:34;;;;;;;;;;;13.20;99.90;;;;;;5084677;28;19927;-59
2021/12/31 07:01:02;;;;;;;;;;;13.20;99.90;;;;;;5067511;28;19927;-60
2021/12/31 07:03:31;;;;;;;;;;;13.20;99.90;;;;;;5043626;28;19928;-59
2021/12/31 07:05:59;;;;;;;;;;;13.20;99.90;;;;;;5046354;28;19921;-60
2021/12/31 07:08:26;;;;;;;;;;;13.20;99.90;;;;;;5058273;28;19928;-59
2021/12/31 07:10:54;;;;;;;;;;;13.30;99.90;;;;;;5065388;28;19928;-60
2021/12/31 07:13:22;;;;;;;;;;;13.30;99.90;;;;;;5067097;28;19920;-66
2021/12/31 07:15:50;;;;;;;;;;;13.30;99.90;;;;;;5069462;28;19921;-66
2021/12/31 07:18:18;;;;;;;;;;;13.30;99.90;;;;;;5063100;28;19935;-66
2021/12/31 07:20:46;;;;;;;;;;;13.30;99.90;;;;;;5030048;28;19921;-66
2021/12/31 07:23:15;;;;;;;;;;;13.30;99.90;;;;;;5056461;28;19928;-63
2021/12/31 07:25:43;;;;;;;;;;;13.30;99.90;;;;;;5065370;28;19920;-60
2021/12/31 07:28:12;;;;;;;;;;;13.30;99.90;;;;;;5050434;28;19920;-60
2021/12/31 07:30:40;;;;;;;;;;;13.30;99.90;;;;;;5050806;28;19928;-63
2021/12/31 07:33:17;;;;;;;;;;;13.30;99.90;;;;;;5064494;28;20399;-64
2021/12/31 07:35:45;;;;;;;;;;;13.30;99.90;;;;;;5048551;28;19931;-60
2021/12/31 07:38:20;;;;;;;;;;;13.30;99.90;;;;;;5058430;28;19928;-60
2021/12/31 07:40:50;;;;;;;;;;;13.30;99.90;;;;;;5068698;28;19928;-60
2021/12/31 07:43:18;;;;;;;;;;;13.20;99.90;;;;;;5068315;28;19924;-60
2021/12/31 07:45:48;;;;;;;;;;;13.20;99.90;;;;;;5068821;28;20167;-61
2021/12/31 07:48:16;;;;;;;;;;;13.20;99.90;;;;;;5064459;28;19929;-60
2021/12/31 07:50:43;;;;;;;;;;;13.20;99.90;;;;;;5030444;28;19920;-61
2021/12/31 07:53:11;;;;;;;;;;;13.20;99.90;;;;;;5059085;28;19920;-60
2021/12/31 07:55:38;;;;;;;;;;;13.20;99.90;;;;;;5068610;28;20253;-60
2021/12/31 07:58:06;;;;;;;;;;;13.20;99.90;;;;;;5068265;28;19978;-60
2021/12/31 08:00:34;;;;;;;;;;;13.10;99.90;;;;;;5049494;28;19924;-61
2021/12/31 08:03:02;;;;;;;;;;;13.10;99.90;;;;;;5064260;28;19927;-60
2021/12/31 08:05:30;;;;;;;;;;;13.10;99.90;;;;;;5045448;28;19925;-60
2021/12/31 08:08:04;;;;;;;;;;;13.10;99.90;;;;;;5037657;28;19943;-59
2021/12/31 08:10:32;;;;;;;;;;;13.00;99.90;;;;;;5068045;28;20275;-62
2021/12/31 08:13:20;;;;;;;;;;;13.00;99.90;;;;;;5067912;28;20273;-63
2021/12/31 08:15:47;;;;;;;;;;;13.00;99.90;;;;;;5068478;28;19921;-62
2021/12/31 08:18:15;;;;;;;;;;;13.00;99.90;;;;;;5048936;28;19920;-61
2021/12/31 08:20:42;;;;;;;;;;;12.90;99.90;;;;;;5047124;28;19920;-61
2021/12/31 08:23:10;;;;;;;;;;;12.90;99.90;;;;;;5054845;28;19925;-60
2021/12/31 08:25:38;;;;;;;;;;;12.90;99.90;;;;;;5065494;28;19931;-60
2021/12/31 08:28:06;;;;;;;;;;;12.90;99.90;;;;;;5067777;28;19932;-59
2021/12/31 08:30:33;;;;;;;;;;;12.80;99.90;;;;;;5067848;28;19928;-60
2021/12/31 08:33:01;;;;;;;;;;;12.80;99.90;;;;;;5050020;28;19921;-60
2021/12/31 08:35:29;;;;;;;;;;;12.70;99.90;;;;;;5049528;28;19932;-60
2021/12/31 08:37:57;;;;;;;;;;;12.70;99.90;;;;;;5055527;28;20387;-60
2021/12/31 08:40:24;;;;;;;;;;;12.70;99.90;;;;;;5049908;28;19920;-60
2021/12/31 08:42:52;;;;;;;;;;;12.70;99.90;;;;;;5032963;28;19943;-60
2021/12/31 08:45:21;;;;;;;;;;;12.70;99.90;;;;;;5067895;28;19920;-59
2021/12/31 08:47:49;;;;;;;;;;;12.70;99.90;;;;;;5067756;28;19927;-59
2021/12/31 08:50:17;;;;;;;;;;;12.60;99.90;;;;;;5034404;28;19921;-60
2021/12/31 08:52:45;;;;;;;;;;;12.60;99.90;;;;;;5054227;28;19921;-60
2021/12/31 08:55:13;;;;;;;;;;;12.70;99.90;;;;;;5050410;28;19943;-63
2021/12/31 08:57:40;;;;;;;;;;;12.70;99.90;;;;;;5049778;28;20376;-63
2021/12/31 09:00:08;;;;;;;;;;;12.70;99.90;;;;;;5070236;28;19927;-60
2021/12/31 09:02:38;;;;;;;;;;;12.70;99.90;;;;;;5070664;28;19924;-61
2021/12/31 09:05:06;;;;;;;;;;;12.70;99.90;;;;;;5055009;28;20388;-62
2021/12/31 09:07:34;;;;;;;;;;;12.70;99.90;;;;;;5052498;28;19928;-62
2021/12/31 09:10:02;;;;;;;;;;;12.70;99.90;;;;;;5050191;28;19920;-63
2021/12/31 09:12:30;;;;;;;;;;;12.70;99.90;;;;;;5067614;28;19920;-61
2021/12/31 09:14:57;;;;;;;;;;;12.80;99.90;;;;;;5049514;28;20183;-63
2021/12/31 09:17:25;;;;;;;;;;;12.80;99.90;;;;;;5050585;28;20382;-62
2021/12/31 09:19:52;;;;;;;;;;;12.80;99.90;;;;;;5057076;28;19929;-62
2021/12/31 09:22:20;;;;;;;;;;;12.80;99.90;;;;;;5050819;28;19931;-60
2021/12/31 09:24:48;;;;;;;;;;;12.80;99.90;;;;;;5068489;28;19920;-63
2021/12/31 09:27:15;;;;;;;;;;;12.90;99.90;;;;;;5070729;28;19921;-61
2021/12/31 09:29:43;;;;;;;;;;;12.90;99.90;;;;;;5070888;28;19927;-63
2021/12/31 09:32:10;;;;;;;;;;;12.90;99.90;;;;;;5070500;28;19927;-62
2021/12/31 09:34:38;;;;;;;;;;;12.90;99.90;;;;;;5062535;28;20376;-61
2021/12/31 09:37:05;;;;;;;;;;;12.90;99.90;;;;;;5050814;28;19931;-64
2021/12/31 09:39:33;;;;;;;;;;;12.90;99.90;;;;;;5070714;28;19920;-64
2021/12/31 09:42:00;;;;;;;;;;;12.80;99.90;;;;;;5070677;28;19921;-64
2021/12/31 09:44:28;;;;;;;;;;;12.80;99.90;;;;;;5070275;28;19924;-66
2021/12/31 09:46:55;;;;;;;;;;;12.80;99.90;;;;;;5052850;28;19924;-67
2021/12/31 09:49:23;;;;;;;;;;;12.90;99.90;;;;;;5065506;28;19944;-67
2021/12/31 09:51:50;;;;;;;;;;;12.90;99.90;;;;;;5050510;28;19996;-68
2021/12/31 09:54:22;;;;;;;;;;;12.90;99.90;;;;;;5069860;28;19928;-67
2021/12/31 09:56:50;;;;;;;;;;;12.90;99.90;;;;;;5069592;28;20356;-67
2021/12/31 09:59:17;;;;;;;;;;;13.00;99.90;;;;;;5052420;28;19927;-64
2021/12/31 10:01:45;;;;;;;;;;;13.00;99.90;;;;;;5035557;28;20394;-64
2021/12/31 10:04:13;;;;;;;;;;;13.00;99.90;;;;;;5067205;28;19928;-66
2021/12/31 10:06:59;;;;;;;;;;;12.90;99.90;;;;;;5049825;28;19928;-64
2021/12/31 10:09:26;;;;;;;;;;;12.90;99.90;;;;;;5051619;28;20292;-63
2021/12/31 10:12:07;;;;;;;;;;;12.90;99.90;;;;;;5069890;28;19928;-62
2021/12/31 10:14:34;;;;;;;;;;;12.90;99.90;;;;;;5052065;28;19920;-62
2021/12/31 10:17:02;;;;;;;;;;;12.90;99.90;;;;;;5052037;28;20395;-63
2021/12/31 10:19:29;;;;;;;;;;;12.90;99.90;;;;;;5047807;28;19920;-63
2021/12/31 10:21:57;;;;;;;;;;;12.90;99.90;;;;;;5049699;28;19943;-62
2021/12/31 10:24:25;;;;;;;;;;;12.90;99.90;;;;;;5063210;28;19920;-62
2021/12/31 10:26:54;;;;;;;;;;;13.00;99.90;;;;;;5052051;28;19924;-64
2021/12/31 10:29:21;;;;;;;;;;;12.90;99.90;;;;;;5069581;28;19920;-62
2021/12/31 10:31:53;;;;;;;;;;;13.00;99.90;;;;;;5069529;28;19924;-63
2021/12/31 10:34:30;;;;;;;;;;;12.90;99.90;;;;;;5017477;28;19921;-61
2021/12/31 10:37:14;;;;;;;;;;;13.00;99.90;;;;;;5031835;28;20328;-61
2021/12/31 10:39:41;;;;;;;;;;;13.00;99.90;;;;;;5050165;28;19921;-61
2021/12/31 10:42:14;;;;;;;;;;;13.10;99.90;;;;;;5051132;28;19928;-61
2021/12/31 10:45:09;;;;;;;;;;;13.10;99.90;;;;;;5051734;28;19931;-61
2021/12/31 10:47:38;;;;;;;;;;;13.10;99.90;;;;;;5065940;28;20360;-61
2021/12/31 10:50:08;;;;;;;;;;;13.20;99.90;;;;;;5062652;28;19928;-61
2021/12/31 10:52:45;;;;;;;;;;;13.20;99.90;;;;;;5053928;28;19920;-60
2021/12/31 10:55:25;;;;;;;;;;;13.20;99.90;;;;;;5068965;28;19920;-59
2021/12/31 10:57:54;;;;;;;;;;;13.20;99.90;;;;;;5051150;28;20279;-60
2021/12/31 11:00:22;;;;;;;;;;;13.30;99.90;;;;;;5069004;28;19927;-60
2021/12/31 11:02:50;;;;;;;;;;;13.40;99.90;;;;;;5068575;28;19950;-60
2021/12/31 11:05:19;;;;;;;;;;;13.40;99.90;;;;;;5043923;28;20395;-60
2021/12/31 11:07:47;;;;;;;;;;;13.40;99.90;;;;;;5053395;28;19920;-60
2021/12/31 11:10:34;;;;;;;;;;;13.40;99.90;;;;;;5068975;28;19921;-60
2021/12/31 11:13:03;;;;;;;;;;;13.40;99.90;;;;;;5068811;28;20378;-60
2021/12/31 11:15:30;;;;;;;;;;;13.40;99.90;;;;;;5069019;28;19927;-60
2021/12/31 11:17:58;;;;;;;;;;;13.50;99.90;;;;;;5050772;28;19920;-59
2021/12/31 11:20:26;;;;;;;;;;;13.60;99.90;;;;;;5046989;28;19921;-60
2021/12/31 11:22:53;;;;;;;;;;;13.70;99.90;;;;;;5054947;28;20291;-61
2021/12/31 11:25:59;;;;;;;;;;;13.80;99.90;;;;;;5068861;28;19924;-61
2021/12/31 11:28:31;;;;;;;;;;;13.80;99.90;;;;;;5050622;28;19928;-60
2021/12/31 11:31:19;;;;;;;;;;;13.90;99.90;;;;;;5068489;28;19920;-60
2021/12/31 11:34:12;;;;;;;;;;;14.00;99.90;;;;;;5068364;28;19931;-60
2021/12/31 11:36:41;;;;;;;;;;;14.00;99.90;;;;;;5037815;28;19921;-59
2021/12/31 11:39:15;;;;;;;;;;;14.00;99.90;;;;;;5065267;28;19920;-60
2021/12/31 11:41:54;;;;;;;;;;;14.00;99.90;;;;;;5068595;28;20392;-60
2021/12/31 11:44:23;;;;;;;;;;;14.00;99.90;;;;;;5050372;28;20364;-63
2021/12/31 11:47:09;;;;;;;;;;;13.90;99.90;;;;;;5068590;28;19927;-65
2021/12/31 11:49:37;;;;;;;;;;;14.00;99.90;;;;;;5068516;28;19924;-60
2021/12/31 11:52:06;;;;;;;;;;;14.10;99.90;;;;;;5049336;28;19992;-61
2021/12/31 11:54:35;;;;;;;;;;;14.20;99.90;;;;;;5068055;28;19920;-65
2021/12/31 11:57:03;;;;;;;;;;;14.40;99.90;;;;;;5068562;28;19927;-60
2021/12/31 11:59:32;;;;;;;;;;;14.60;99.90;;;;;;5068208;28;19974;-62
2021/12/31 12:02:05;;;;;;;;;;;14.70;99.90;;;;;;5068284;28;19920;-60
2021/12/31 12:04:37;;;;;;;;;;;14.70;99.90;;;;;;5067936;28;19924;-61
2021/12/31 12:07:11;;;;;;;;;;;14.80;99.90;;;;;;5049766;28;20277;-65
2021/12/31 12:09:38;;;;;;;;;;;14.90;99.90;;;;;;5068354;28;19932;-66
2021/12/31 12:12:11;;;;;;;;;;;15.10;99.90;;;;;;5067993;28;19931;-60
2021/12/31 12:14:40;;;;;;;;;;;15.40;99.90;;;;;;5067980;28;19920;-65
2021/12/31 12:17:09;;;;;;;;;;;15.40;99.90;;;;;;5068011;28;20376;-61
2021/12/31 12:19:45;;;;;;;;;;;15.40;99.90;;;;;;5068359;28;19928;-60
2021/12/31 12:22:32;;;;;;;;;;;15.40;99.90;;;;;;5051467;28;19928;-61
2021/12/31 12:25:18;;;;;;;;;;;15.40;99.90;;;;;;5067862;28;19935;-64
2021/12/31 12:27:47;;;;;;;;;;;15.40;99.90;;;;;;5050051;28;20303;-61
2021/12/31 12:30:15;;;;;;;;;;;15.50;99.90;;;;;;5068020;28;19921;-66
2021/12/31 12:35:22;;;;;;;;;;;15.80;99.90;;;;;;5052466;28;19927;-59
2021/12/31 12:38:05;;;;;;;;;;;16.20;99.90;;;;;;5057619;28;19927;-60
2021/12/31 12:40:37;;;;;;;;;;;16.50;99.90;;;;;;5071848;28;19928;-61
2021/12/31 12:43:06;;;;;;;;;;;16.80;99.90;;;;;;5053808;28;19931;-62
2021/12/31 12:45:37;;;;;;;;;;;17.00;99.90;;;;;;5071684;28;19928;-60
2021/12/31 12:48:05;;;;;;;;;;;17.10;99.90;;;;;;5071385;28;20288;-63
2021/12/31 12:50:32;;;;;;;;;;;17.20;99.90;;;;;;5068485;28;20288;-62
2021/12/31 12:53:00;;;;;;;;;;;17.30;99.90;;;;;;5058778;28;20287;-62
2021/12/31 12:55:28;;;;;;;;;;;17.30;99.90;;;;;;5071653;28;19924;-62
2021/12/31 12:57:58;;;;;;;;;;;17.20;99.90;;;;;;5071653;28;19927;-61
2021/12/31 13:00:31;;;;;;;;;;;17.20;99.90;;;;;;5071068;28;20287;-60
2021/12/31 13:03:05;;;;;;;;;;;17.20;99.90;;;;;;5071149;28;20292;-60
2021/12/31 13:05:35;;;;;;;;;;;17.10;99.90;;;;;;5068848;28;19928;-60
2021/12/31 13:08:04;;;;;;;;;;;17.00;99.90;;;;;;5058852;28;19920;-59
2021/12/31 13:10:32;;;;;;;;;;;16.90;99.90;;;;;;5053267;28;19924;-59
2021/12/31 13:13:00;;;;;;;;;;;16.80;99.40;;;;;;5070627;28;19921;-59
2021/12/31 13:15:29;;;;;;;;;;;16.70;99.90;;;;;;5071003;28;19928;-60
2021/12/31 13:17:57;;;;;;;;;;;16.60;99.90;;;;;;5070617;28;19920;-60
2021/12/31 13:20:25;;;;;;;;;;;16.50;99.90;;;;;;5070579;28;19998;-60
2021/12/31 13:22:54;;;;;;;;;;;16.40;99.90;;;;;;5057111;28;19924;-60
2021/12/31 13:25:35;;;;;;;;;;;16.50;99.90;;;;;;5053066;28;19920;-60
2021/12/31 13:28:14;;;;;;;;;;;16.60;99.90;;;;;;5070445;28;19920;-60
2021/12/31 13:30:48;;;;;;;;;;;16.60;99.90;;;;;;5036406;28;19926;-59
2021/12/31 13:33:26;;;;;;;;;;;16.70;99.90;;;;;;5070302;28;20376;-60
2021/12/31 13:36:11;;;;;;;;;;;16.70;99.90;;;;;;5068016;28;19923;-63
2021/12/31 13:38:55;;;;;;;;;;;16.70;99.90;;;;;;5063263;28;19928;-60
2021/12/31 13:41:23;;;;;;;;;;;16.70;99.90;;;;;;5070562;28;19928;-63
2021/12/31 13:44:12;;;;;;;;;;;16.70;99.90;;;;;;5054549;28;19920;-62
2021/12/31 13:46:41;;;;;;;;;;;16.70;99.90;;;;;;5070797;28;20425;-63
2021/12/31 13:49:21;;;;;;;;;;;16.70;99.90;;;;;;5035907;28;19924;-60
2021/12/31 13:51:48;;;;;;;;;;;16.80;99.90;;;;;;5043319;28;19925;-60
2021/12/31 13:54:17;;;;;;;;;;;17.00;99.90;;;;;;5048992;28;19928;-60
2021/12/31 13:56:46;;;;;;;;;;;17.00;99.60;;;;;;5070317;28;20533;-61
2021/12/31 13:59:17;;;;;;;;;;;17.00;99.90;;;;;;5070153;28;20272;-61
2021/12/31 14:02:03;;;;;;;;;;;17.10;99.00;;;;;;5070280;28;19928;-59
2021/12/31 14:04:31;;;;;;;;;;;17.00;99.40;;;;;;5069454;28;19924;-63
2021/12/31 14:07:17;;;;;;;;;;;16.90;99.20;;;;;;5060441;28;20312;-60
2021/12/31 14:09:45;;;;;;;;;;;16.60;99.90;;;;;;5050138;28;19925;-60
2021/12/31 14:12:13;;;;;;;;;;;16.20;99.90;;;;;;5050671;28;19921;-59
2021/12/31 14:14:41;;;;;;;;;;;15.90;99.90;;;;;;5069748;28;19928;-59
2021/12/31 14:17:12;;;;;;;;;;;15.60;99.90;;;;;;5036009;28;19950;-60
2021/12/31 14:19:41;;;;;;;;;;;15.20;99.90;;;;;;5044493;28;19928;-62
2021/12/31 14:22:09;;;;;;;;;;;14.90;99.90;;;;;;5047644;28;19925;-60
2021/12/31 14:24:37;;;;;;;;;;;14.70;99.90;;;;;;5042640;28;19920;-62
2021/12/31 14:27:06;;;;;;;;;;;14.60;99.90;;;;;;5066036;28;19921;-62
2021/12/31 14:29:34;;;;;;;;;;;14.40;99.90;;;;;;5066098;28;19920;-61
2021/12/31 14:32:02;;;;;;;;;;;14.30;99.90;;;;;;5048820;28;19932;-65
2021/12/31 14:34:32;;;;;;;;;;;14.20;99.90;;;;;;5031594;28;19931;-62
2021/12/31 14:37:11;;;;;;;;;;;14.00;99.90;;;;;;5048250;28;19921;-67
2021/12/31 14:39:49;;;;;;;;;;;14.00;99.90;;;;;;5031910;28;19944;-65